메인 페이지
METAR-TAF:

METAR-TAF

공항 :

산호세 국제공항

새너제이, 캘리포니아, 미국

위도: 37-21-33N, 경도: 121-55-27W, 고도: 18m

현재 날씨관측

예보는 42분 전, 05:53시(UTC)에 발표되었습니다.
북북서5kt
온도 14°C
습도 72%
기압 1014 hPa
시정: 16.1km
고도 6500ft 상공 구름 조금
고도 8000ft 상공 구름 조금
고도 10000ft 상공 구름 많음

METAR: KSJC 200553Z 34005KT 10SM FEW065 FEW080 BKN100 14/09 A2993 RMK AO2 SLP135 T01390094 10217 20139 50013

시각: 23:35 (06:35 UTC)

예보

예보는 1 시간 15분 전, 05:20시(UTC)에 발표되었습니다.
예보 대상 시간: 20일 06시부터 21일 06시까지 (UTC)
북북서7kt
시정: 10km
고도 1400ft 상공 구름 조금
20일 1200시부터 (UTC)
여러 방향의 바람 4kt
시정: 10km
고도 1400ft 상공 구름 많음
20일 1700시부터 (UTC)
북북서14kt
시정: 10km
맑음
21일 0400시부터 (UTC)
북북서8kt
시정: 10km
맑음

TAF: KSJC 200520Z 2006/2106 34007KT P6SM FEW014 FM201200 VRB04KT P6SM BKN014 FM201700 33014KT P6SM SKC FM210400 34008KT P6SM SKC

4,000개 이상의 공항 관측 자료 및 예보 (METAR 및 TAF 보고).

지도상에서 검색 가능한 기상관측소가 노란 점과 빨간 점으로 표시되어 있습니다.

기상관측소 명을 보려면 표시 위로 마우스를 이동하세요.

날씨 관측과 예보를 보려면 클릭하세요.

지도 변경 : 확대하려면 엑스 표시가 있는 녹색 버튼, 축소하려면 빼기 표시가 있는 녹색 버튼, 다음 페이지의 지도를 보려면 녹색 화살표를 클릭하세요.


METAR-TAF: